Time,TemperatureF,DewpointF,PressureIn,WindDirection,WindDirectionDegrees,WindSpeedMPH,WindSpeedGustMPH,Humidity,HourlyPrecipIn,Conditions,Clouds,dailyrainin,SoftwareType,DateUTC
2013-03-03 19:30:00,49.8,29.8,29.92,East,97,0.0,0.0,46,0.00,,,0.00,Wunderground v.1.15,2013-03-04 01:30:00,
2013-03-03 19:35:00,49.6,30.2,29.92,SSW,207,0.0,0.0,47,0.00,,,0.00,Wunderground v.1.15,2013-03-04 01:35:00,
2013-03-03 19:40:00,49.4,30.0,29.92,South,173,0.0,0.0,47,0.00,,,0.00,Wunderground v.1.15,2013-03-04 01:40:00,
2013-03-03 19:45:00,49.4,30.0,29.92,SSE,148,0.0,1.0,47,0.00,,,0.00,Wunderground v.1.15,2013-03-04 01:45:00,
2013-03-03 19:51:00,49.5,30.1,29.91,NE,41,1.0,1.0,47,0.00,,,0.00,Wunderground v.1.15,2013-03-04 01:51:00,
2013-03-03 19:56:00,49.7,30.3,29.91,East,99,0.0,2.0,47,0.00,,,0.00,Wunderground v.1.15,2013-03-04 01:56:00,
2013-03-03 20:01:00,49.5,30.1,29.91,SW,219,0.0,1.0,47,0.00,,,0.00,Wunderground v.1.15,2013-03-04 02:01:00,
2013-03-03 20:06:00,49.1,30.2,29.91,SSW,211,0.0,1.0,48,0.00,,,0.00,Wunderground v.1.15,2013-03-04 02:06:00,
2013-03-03 20:11:00,48.7,29.9,29.91,SSW,211,0.0,0.0,48,0.00,,,0.00,Wunderground v.1.15,2013-03-04 02:11:00,
2013-03-03 20:16:00,48.3,29.5,29.90,SE,131,0.0,0.0,48,0.00,,,0.00,Wunderground v.1.15,2013-03-04 02:16:00,
2013-03-03 20:21:00,47.9,29.6,29.90,SE,131,0.0,0.0,49,0.00,,,0.00,Wunderground v.1.15,2013-03-04 02:21:00,
2013-03-03 20:26:00,47.7,29.5,29.90,SE,127,0.0,1.0,49,0.00,,,0.00,Wunderground v.1.15,2013-03-04 02:26:00,
2013-03-03 20:31:00,47.6,29.4,29.90,SW,214,0.0,0.0,49,0.00,,,0.00,Wunderground v.1.15,2013-03-04 02:31:00,
2013-03-03 20:36:00,47.6,29.9,29.90,East,79,0.0,2.0,50,0.00,,,0.00,Wunderground v.1.15,2013-03-04 02:36:00,
2013-03-03 20:41:00,47.6,29.4,29.90,North,10,0.0,0.0,49,0.00,,,0.00,Wunderground v.1.15,2013-03-04 02:41:00,
2013-03-03 20:46:00,47.1,29.9,29.90,NNE,27,0.0,1.0,51,0.00,,,0.00,Wunderground v.1.15,2013-03-04 02:46:00,
2013-03-03 20:51:00,46.6,29.9,29.90,NNE,27,0.0,1.0,52,0.00,,,0.00,Wunderground v.1.15,2013-03-04 02:51:00,
2013-03-03 20:56:00,46.3,29.6,29.90,NNE,27,0.0,1.0,52,0.00,,,0.00,Wunderground v.1.15,2013-03-04 02:56:00,
2013-03-03 21:01:00,46.2,29.5,29.90,East,82,0.0,1.0,52,0.00,,,0.00,Wunderground v.1.15,2013-03-04 03:01:00,
2013-03-03 21:06:00,46.2,29.5,29.90,East,83,0.0,1.0,52,0.00,,,0.00,Wunderground v.1.15,2013-03-04 03:06:00,
2013-03-03 21:11:00,46.1,29.9,29.90,ENE,59,0.0,1.0,53,0.00,,,0.00,Wunderground v.1.15,2013-03-04 03:11:00,
2013-03-03 21:16:00,45.6,29.9,29.89,ENE,77,0.0,1.0,54,0.00,,,0.00,Wunderground v.1.15,2013-03-04 03:16:00,
2013-03-03 21:21:00,45.2,29.5,29.89,South,170,0.0,0.0,54,0.00,,,0.00,Wunderground v.1.15,2013-03-04 03:21:00,
2013-03-03 21:26:00,44.7,29.1,29.89,South,170,0.0,0.0,54,0.00,,,0.00,Wunderground v.1.15,2013-03-04 03:26:00,
2013-03-03 21:31:00,44.5,29.3,29.89,South,170,0.0,0.0,55,0.00,,,0.00,Wunderground v.1.15,2013-03-04 03:31:00,
2013-03-03 21:36:00,44.3,29.6,29.89,SSE,162,0.0,0.0,56,0.00,,,0.00,Wunderground v.1.15,2013-03-04 03:36:00,
2013-03-03 21:41:00,44.4,29.7,29.89,SSE,162,0.0,0.0,56,0.00,,,0.00,Wunderground v.1.15,2013-03-04 03:41:00,
2013-03-03 21:46:00,44.4,29.7,29.89,East,89,0.0,0.0,56,0.00,,,0.00,Wunderground v.1.15,2013-03-04 03:46:00,
2013-03-03 21:51:00,44.4,30.1,29.89,East,83,0.0,2.0,57,0.00,,,0.00,Wunderground v.1.15,2013-03-04 03:51:00,
2013-03-03 21:56:00,43.9,30.1,29.89,East,82,1.0,2.0,58,0.00,,,0.00,Wunderground v.1.15,2013-03-04 03:56:00,
2013-03-03 22:01:00,43.2,30.6,29.89,East,83,1.0,1.0,61,0.00,,,0.00,Wunderground v.1.15,2013-03-04 04:01:00,
2013-03-03 22:06:00,42.4,31.1,29.88,East,91,1.0,2.0,64,0.00,,,0.00,Wunderground v.1.15,2013-03-04 04:06:00,
2013-03-03 22:11:00,41.7,30.8,29.89,East,94,2.0,2.0,65,0.00,,,0.00,Wunderground v.1.15,2013-03-04 04:11:00,
2013-03-03 22:16:00,41.5,31.0,29.88,East,95,0.0,2.0,66,0.00,,,0.00,Wunderground v.1.15,2013-03-04 04:16:00,
2013-03-03 22:21:00,41.1,31.3,29.88,East,96,0.0,1.0,68,0.00,,,0.00,Wunderground v.1.15,2013-03-04 04:21:00,
2013-03-03 22:26:00,40.8,31.4,29.88,East,82,2.0,4.0,69,0.00,,,0.00,Wunderground v.1.15,2013-03-04 04:26:00,
2013-03-03 22:31:00,40.3,31.3,29.87,East,96,3.0,3.0,70,0.00,,,0.00,Wunderground v.1.15,2013-03-04 04:31:00,
2013-03-03 22:37:00,40.4,31.4,29.87,East,96,1.0,3.0,70,0.00,,,0.00,Wunderground v.1.15,2013-03-04 04:37:00,
2013-03-03 22:42:00,40.6,31.2,29.87,WSW,256,0.0,2.0,69,0.00,,,0.00,Wunderground v.1.15,2013-03-04 04:42:00,
2013-03-03 22:47:00,40.1,31.1,29.87,WSW,256,0.0,2.0,70,0.00,,,0.00,Wunderground v.1.15,2013-03-04 04:47:00,
2013-03-03 22:52:00,39.7,31.1,29.87,East,86,0.0,1.0,71,0.00,,,0.00,Wunderground v.1.15,2013-03-04 04:52:00,
2013-03-03 22:57:00,39.5,31.2,29.87,East,82,0.0,2.0,72,0.00,,,0.00,Wunderground v.1.15,2013-03-04 04:57:00,
2013-03-03 23:00:00,39.5,31.2,29.87,East,82,0.0,0.0,72,0.00,,,0.00,Wunderground v.1.15,2013-03-04 05:00:00,
2013-03-03 23:05:00,39.2,31.3,29.86,East,89,2.0,3.0,73,0.00,,,0.00,Wunderground v.1.15,2013-03-04 05:05:00,
2013-03-03 23:10:00,38.9,31.3,29.86,ESE,105,1.0,2.0,74,0.00,,,0.00,Wunderground v.1.15,2013-03-04 05:10:00,
2013-03-03 23:15:00,38.9,31.3,29.86,East,81,2.0,3.0,74,0.00,,,0.00,Wunderground v.1.15,2013-03-04 05:15:00,
2013-03-03 23:20:00,39.6,31.3,29.86,ENE,75,3.0,3.0,72,0.00,,,0.00,Wunderground v.1.15,2013-03-04 05:20:00,
2013-03-03 23:25:00,39.7,31.4,29.85,ENE,78,2.0,5.0,72,0.00,,,0.00,Wunderground v.1.15,2013-03-04 05:25:00,
2013-03-03 23:30:00,40.2,31.2,29.85,East,98,1.0,2.0,70,0.00,,,0.00,Wunderground v.1.15,2013-03-04 05:30:00,
2013-03-03 23:35:00,40.6,31.2,29.85,ENE,78,1.0,3.0,69,0.00,,,0.00,Wunderground v.1.15,2013-03-04 05:35:00,
2013-03-03 23:40:00,40.2,31.5,29.85,ESE,108,1.0,2.0,71,0.00,,,0.00,Wunderground v.1.15,2013-03-04 05:40:00,
2013-03-03 23:45:00,40.4,31.4,29.84,East,97,0.0,2.0,70,0.00,,,0.00,Wunderground v.1.15,2013-03-04 05:45:00,
2013-03-03 23:50:00,40.5,31.5,29.84,East,101,2.0,3.0,70,0.00,,,0.00,Wunderground v.1.15,2013-03-04 05:50:00,
2013-03-03 23:55:00,40.4,31.4,29.84,East,79,1.0,3.0,70,0.00,,,0.00,Wunderground v.1.15,2013-03-04 05:55:00,